City of Grants Pass

Grants Pass AirportĀ 

Current Weather Conditions Medford Airport:
MEDFORD, OR
Metar
KMFR 261953Z VRB03KT 9SM CLR 30/11 A3002 RMK AO2 SLP151 T03000111

19:53 UTC

Wind: ° 3kt

Visibility: 9 SM

Sky:

Temp: 30 deg C / 86 deg F

Dewpoint: 11 deg C / 51.8 deg F

Pressure: 30.02 inHg

TAF
KMFR 261740Z 2618/2718 VRB05KT P6SM BKN150 FM262200 31012KT P6SM SCT060 BKN110 FM270500 VRB03KT P6SM SCT100
Pireps (2)
SIY UA /OV FJS/TM 1933/FL011/TP C182/TB MOD/RM -ZSE
CEC UA /OV CEC/TM 1839/FL015/TP PAY2/SK BASES003-TOPS008/RM -ZSE